PWSweather.com
Personal Weather Stations
Station Observations
IONTARIO88
Lincoln, ON L0R

Lincoln, ON L0R

Lat: 43.1763563, Lon: -79.4719525

Elevation: 297

Station Type: Davis Vantage Pro 2 Plus

http://www.beamsvillewx.ca

High Low Average
Temperature 92.8°F33.8°C 70.0°F21.1°C 79.6°F26.4°C
Dew Point 75.9°F24.4°C 64.9°F18.3°C 71.8°F22.1°C
Winds 8.0 mph 12.9 kmh Calm Calm 4.0 mph E6.4 kmh E
Wind Gusts 18.0 mph29.0 kmh 3.0 mph4.8 kmh 11.0 mph17.7 kmh
Humidity 91% 57% 78%
Pressure 29.91 in1012.9 mb 29.76 in1007.8 mb -
Precipitation 0.32 in8.1 mm - -
Hour Temp Dew Point Humidity Winds Wind Gusts Pressure Precip Precip Rate Daily Precip Total
12:00 AM 77.2°F25.1°C 66.6°F19.2°C 70% 4.0 mph NE6.4 kmh NE 12.0 mph19.3 kmh 29.91 in1012.9 mb 0.00 in0.0 mm 0.00 in0.0 mm 0.00 in0.0 mm
12:15 AM 77.2°F25.1°C 66.6°F19.2°C 70% 6.0 mph NE9.7 kmh NE 15.0 mph24.1 kmh 29.91 in1012.9 mb 0.00 in0.0 mm 0.00 in0.0 mm 0.00 in0.0 mm
12:30 AM 77.2°F25.1°C 67.0°F19.4°C 71% 5.0 mph NE8.0 kmh NE 12.0 mph19.3 kmh 29.91 in1012.9 mb 0.00 in0.0 mm 0.00 in0.0 mm 0.00 in0.0 mm
12:45 AM 77.2°F25.1°C 67.0°F19.4°C 71% 3.0 mph NE4.8 kmh NE 11.0 mph17.7 kmh 29.91 in1012.9 mb 0.00 in0.0 mm 0.00 in0.0 mm 0.00 in0.0 mm
01:00 AM 77.2°F25.1°C 67.5°F19.7°C 72% 5.0 mph NE8.0 kmh NE 11.0 mph17.7 kmh 29.91 in1012.9 mb 0.00 in0.0 mm 0.00 in0.0 mm 0.00 in0.0 mm
01:15 AM 77.2°F25.1°C 67.9°F19.9°C 73% 4.0 mph NE6.4 kmh NE 11.0 mph17.7 kmh 29.91 in1012.9 mb 0.00 in0.0 mm 0.00 in0.0 mm 0.00 in0.0 mm
01:30 AM 77.0°F25.0°C 67.7°F19.8°C 73% 4.0 mph NE6.4 kmh NE 11.0 mph17.7 kmh 29.91 in1012.9 mb 0.00 in0.0 mm 0.00 in0.0 mm 0.00 in0.0 mm
01:45 AM 77.0°F25.0°C 68.1°F20.1°C 74% 5.0 mph NE8.0 kmh NE 13.0 mph20.9 kmh 29.90 in1012.5 mb 0.00 in0.0 mm 0.00 in0.0 mm 0.00 in0.0 mm
02:00 AM 77.2°F25.1°C 68.6°F20.3°C 75% 4.0 mph NE6.4 kmh NE 13.0 mph20.9 kmh 29.90 in1012.5 mb 0.00 in0.0 mm 0.00 in0.0 mm 0.00 in0.0 mm
02:15 AM 77.5°F25.3°C 69.0°F20.6°C 75% 5.0 mph NE8.0 kmh NE 16.0 mph25.7 kmh 29.90 in1012.5 mb 0.00 in0.0 mm 0.00 in0.0 mm 0.00 in0.0 mm
02:30 AM 77.5°F25.3°C 69.0°F20.6°C 75% 5.0 mph NE8.0 kmh NE 16.0 mph25.7 kmh 29.90 in1012.5 mb 0.00 in0.0 mm 0.00 in0.0 mm 0.00 in0.0 mm
02:45 AM 77.7°F25.4°C 69.2°F20.7°C 75% 4.0 mph NE6.4 kmh NE 10.0 mph16.1 kmh 29.89 in1012.2 mb 0.00 in0.0 mm 0.00 in0.0 mm 0.00 in0.0 mm
03:00 AM 78.1°F25.6°C 69.5°F20.8°C 75% 5.0 mph NE8.0 kmh NE 15.0 mph24.1 kmh 29.88 in1011.9 mb 0.00 in0.0 mm 0.00 in0.0 mm 0.00 in0.0 mm
03:15 AM 78.4°F25.8°C 69.9°F21.1°C 75% 7.0 mph NE11.3 kmh NE 13.0 mph20.9 kmh 29.88 in1011.9 mb 0.00 in0.0 mm 0.00 in0.0 mm 0.00 in0.0 mm
03:30 AM 78.6°F25.9°C 70.0°F21.1°C 75% 6.0 mph NE9.7 kmh NE 12.0 mph19.3 kmh 29.88 in1011.9 mb 0.00 in0.0 mm 0.00 in0.0 mm 0.00 in0.0 mm
03:45 AM 78.6°F25.9°C 70.0°F21.1°C 75% 6.0 mph NE9.7 kmh NE 12.0 mph19.3 kmh 29.88 in1011.9 mb 0.00 in0.0 mm 0.00 in0.0 mm 0.00 in0.0 mm
04:00 AM 78.3°F25.7°C 70.1°F21.2°C 76% 6.0 mph NE9.7 kmh NE 13.0 mph20.9 kmh 29.87 in1011.5 mb 0.00 in0.0 mm 0.00 in0.0 mm 0.00 in0.0 mm
04:15 AM 78.1°F25.6°C 70.3°F21.3°C 77% 5.0 mph NE8.0 kmh NE 14.0 mph22.5 kmh 29.87 in1011.5 mb 0.00 in0.0 mm 0.00 in0.0 mm 0.00 in0.0 mm
04:30 AM 78.1°F25.6°C 70.3°F21.3°C 77% 5.0 mph NE8.0 kmh NE 12.0 mph19.3 kmh 29.87 in1011.5 mb 0.00 in0.0 mm 0.00 in0.0 mm 0.00 in0.0 mm
04:45 AM 78.1°F25.6°C 70.7°F21.5°C 78% 5.0 mph NE8.0 kmh NE 14.0 mph22.5 kmh 29.86 in1011.2 mb 0.00 in0.0 mm 0.00 in0.0 mm 0.00 in0.0 mm
05:00 AM 78.1°F25.6°C 70.7°F21.5°C 78% 6.0 mph NE9.7 kmh NE 14.0 mph22.5 kmh 29.86 in1011.2 mb 0.00 in0.0 mm 0.00 in0.0 mm 0.00 in0.0 mm
05:15 AM 78.1°F25.6°C 70.7°F21.5°C 78% 5.0 mph NE8.0 kmh NE 14.0 mph22.5 kmh 29.86 in1011.2 mb 0.00 in0.0 mm 0.00 in0.0 mm 0.00 in0.0 mm
05:30 AM 78.1°F25.6°C 70.7°F21.5°C 78% 5.0 mph NE8.0 kmh NE 12.0 mph19.3 kmh 29.86 in1011.2 mb 0.00 in0.0 mm 0.00 in0.0 mm 0.00 in0.0 mm
05:45 AM 77.7°F25.4°C 70.3°F21.3°C 78% 5.0 mph NE8.0 kmh NE 11.0 mph17.7 kmh 29.86 in1011.2 mb 0.00 in0.0 mm 0.00 in0.0 mm 0.00 in0.0 mm
06:00 AM 77.7°F25.4°C 70.3°F21.3°C 78% 4.0 mph NE6.4 kmh NE 14.0 mph22.5 kmh 29.86 in1011.2 mb 0.00 in0.0 mm 0.00 in0.0 mm 0.00 in0.0 mm
06:15 AM 77.7°F25.4°C 70.3°F21.3°C 78% 5.0 mph NE8.0 kmh NE 15.0 mph24.1 kmh 29.86 in1011.2 mb 0.00 in0.0 mm 0.00 in0.0 mm 0.00 in0.0 mm
06:30 AM 77.7°F25.4°C 70.3°F21.3°C 78% 5.0 mph NE8.0 kmh NE 14.0 mph22.5 kmh 29.86 in1011.2 mb 0.00 in0.0 mm 0.00 in0.0 mm 0.00 in0.0 mm
06:45 AM 77.5°F25.3°C 70.5°F21.4°C 79% 6.0 mph NE9.7 kmh NE 16.0 mph25.7 kmh 29.86 in1011.2 mb 0.00 in0.0 mm 0.00 in0.0 mm 0.00 in0.0 mm
07:00 AM 77.7°F25.4°C 70.7°F21.5°C 79% 6.0 mph NE9.7 kmh NE 14.0 mph22.5 kmh 29.86 in1011.2 mb 0.00 in0.0 mm 0.00 in0.0 mm 0.00 in0.0 mm
07:15 AM 78.3°F25.7°C 70.8°F21.6°C 78% 5.0 mph ENE8.0 kmh ENE 13.0 mph20.9 kmh 29.86 in1011.2 mb 0.00 in0.0 mm 0.00 in0.0 mm 0.00 in0.0 mm
07:30 AM 79.2°F26.2°C 70.9°F21.6°C 76% 5.0 mph NE8.0 kmh NE 15.0 mph24.1 kmh 29.86 in1011.2 mb 0.00 in0.0 mm 0.00 in0.0 mm 0.00 in0.0 mm
07:45 AM 80.2°F26.8°C 71.6°F22.0°C 75% 6.0 mph ENE9.7 kmh ENE 17.0 mph27.4 kmh 29.86 in1011.2 mb 0.00 in0.0 mm 0.00 in0.0 mm 0.00 in0.0 mm
08:00 AM 81.5°F27.5°C 72.0°F22.2°C 73% 6.0 mph ENE9.7 kmh ENE 14.0 mph22.5 kmh 29.86 in1011.2 mb 0.00 in0.0 mm 0.00 in0.0 mm 0.00 in0.0 mm
08:15 AM 82.6°F28.1°C 72.2°F22.3°C 71% 6.0 mph ENE9.7 kmh ENE 15.0 mph24.1 kmh 29.86 in1011.2 mb 0.00 in0.0 mm 0.00 in0.0 mm 0.00 in0.0 mm
08:30 AM 83.5°F28.6°C 72.2°F22.3°C 69% 5.0 mph ENE8.0 kmh ENE 15.0 mph24.1 kmh 29.86 in1011.2 mb 0.00 in0.0 mm 0.00 in0.0 mm 0.00 in0.0 mm
08:45 AM 84.6°F29.2°C 72.8°F22.7°C 68% 6.0 mph ENE9.7 kmh ENE 15.0 mph24.1 kmh 29.86 in1011.2 mb 0.00 in0.0 mm 0.00 in0.0 mm 0.00 in0.0 mm
09:00 AM 84.9°F29.4°C 72.7°F22.6°C 67% 7.0 mph E11.3 kmh E 14.0 mph22.5 kmh 29.86 in1011.2 mb 0.00 in0.0 mm 0.00 in0.0 mm 0.00 in0.0 mm
09:15 AM 84.7°F29.3°C 73.0°F22.8°C 68% 5.0 mph E8.0 kmh E 12.0 mph19.3 kmh 29.86 in1011.2 mb 0.00 in0.0 mm 0.00 in0.0 mm 0.00 in0.0 mm
09:30 AM 84.9°F29.4°C 73.6°F23.1°C 69% 4.0 mph ENE6.4 kmh ENE 9.0 mph14.5 kmh 29.86 in1011.2 mb 0.00 in0.0 mm 0.00 in0.0 mm 0.00 in0.0 mm
09:45 AM 85.8°F29.9°C 73.6°F23.1°C 67% 5.0 mph ENE8.0 kmh ENE 11.0 mph17.7 kmh 29.85 in1010.8 mb 0.00 in0.0 mm 0.00 in0.0 mm 0.00 in0.0 mm
10:00 AM 86.5°F30.3°C 73.8°F23.2°C 66% 4.0 mph E6.4 kmh E 11.0 mph17.7 kmh 29.85 in1010.8 mb 0.00 in0.0 mm 0.00 in0.0 mm 0.00 in0.0 mm
10:15 AM 86.9°F30.5°C 74.2°F23.4°C 66% 4.0 mph ENE6.4 kmh ENE 11.0 mph17.7 kmh 29.84 in1010.5 mb 0.00 in0.0 mm 0.00 in0.0 mm 0.00 in0.0 mm
10:30 AM 87.8°F31.0°C 74.6°F23.7°C 65% 5.0 mph E8.0 kmh E 13.0 mph20.9 kmh 29.84 in1010.5 mb 0.00 in0.0 mm 0.00 in0.0 mm 0.00 in0.0 mm
10:45 AM 88.5°F31.4°C 74.3°F23.5°C 63% 6.0 mph ENE9.7 kmh ENE 15.0 mph24.1 kmh 29.84 in1010.5 mb 0.00 in0.0 mm 0.00 in0.0 mm 0.00 in0.0 mm
11:00 AM 89.6°F32.0°C 74.9°F23.8°C 62% 5.0 mph ENE8.0 kmh ENE 13.0 mph20.9 kmh 29.84 in1010.5 mb 0.00 in0.0 mm 0.00 in0.0 mm 0.00 in0.0 mm
11:15 AM 90.7°F32.6°C 75.4°F24.1°C 61% 4.0 mph ENE6.4 kmh ENE 13.0 mph20.9 kmh 29.83 in1010.2 mb 0.00 in0.0 mm 0.00 in0.0 mm 0.00 in0.0 mm
11:30 AM 91.2°F32.9°C 75.9°F24.4°C 61% 6.0 mph E9.7 kmh E 16.0 mph25.7 kmh 29.83 in1010.2 mb 0.00 in0.0 mm 0.00 in0.0 mm 0.00 in0.0 mm
11:45 AM 91.2°F32.9°C 73.9°F23.3°C 57% 8.0 mph E12.9 kmh E 18.0 mph29.0 kmh 29.83 in1010.2 mb 0.00 in0.0 mm 0.00 in0.0 mm 0.00 in0.0 mm
12:00 PM 91.6°F33.1°C 74.7°F23.7°C 58% 6.0 mph E9.7 kmh E 14.0 mph22.5 kmh 29.83 in1010.2 mb 0.00 in0.0 mm 0.00 in0.0 mm 0.00 in0.0 mm
12:15 PM 92.7°F33.7°C 75.7°F24.3°C 58% 8.0 mph E12.9 kmh E 17.0 mph27.4 kmh 29.82 in1009.8 mb 0.00 in0.0 mm 0.00 in0.0 mm 0.00 in0.0 mm
12:30 PM 92.5°F33.6°C 75.0°F23.9°C 57% 7.0 mph NE11.3 kmh NE 18.0 mph29.0 kmh 29.81 in1009.5 mb 0.00 in0.0 mm 0.00 in0.0 mm 0.00 in0.0 mm
12:45 PM 92.8°F33.8°C 75.4°F24.1°C 57% 6.0 mph E9.7 kmh E 17.0 mph27.4 kmh 29.80 in1009.1 mb 0.00 in0.0 mm 0.00 in0.0 mm 0.00 in0.0 mm
01:00 PM 90.5°F32.5°C 75.2°F24.0°C 61% 6.0 mph E9.7 kmh E 15.0 mph24.1 kmh 29.80 in1009.1 mb 0.00 in0.0 mm 0.00 in0.0 mm 0.00 in0.0 mm
01:15 PM 87.4°F30.8°C 72.3°F22.4°C 61% 3.0 mph SSE4.8 kmh SSE 10.0 mph16.1 kmh 29.81 in1009.5 mb 0.00 in0.0 mm 0.00 in0.0 mm 0.00 in0.0 mm
01:30 PM 78.6°F25.9°C 72.3°F22.4°C 81% 8.0 mph ENE12.9 kmh ENE 18.0 mph29.0 kmh 29.82 in1009.8 mb 0.16 in4.1 mm 0.64 in16.3 mm 0.16 in4.1 mm
01:45 PM 77.7°F25.4°C 72.8°F22.7°C 85% 7.0 mph E11.3 kmh E 18.0 mph29.0 kmh 29.81 in1009.5 mb 0.16 in4.1 mm 0.00 in0.0 mm 0.16 in4.1 mm
02:00 PM 76.1°F24.5°C 70.9°F21.6°C 84% 8.0 mph SSE12.9 kmh SSE 18.0 mph29.0 kmh 29.86 in1011.2 mb 0.16 in4.1 mm 0.00 in0.0 mm 0.16 in4.1 mm
02:15 PM 73.9°F23.3°C 70.5°F21.4°C 89% 4.0 mph ESE6.4 kmh ESE 9.0 mph14.5 kmh 29.84 in1010.5 mb 0.28 in7.1 mm 0.48 in12.2 mm 0.28 in7.1 mm
02:30 PM 74.1°F23.4°C 71.3°F21.8°C 91% 3.0 mph E4.8 kmh E 9.0 mph14.5 kmh 29.83 in1010.2 mb 0.14 in3.6 mm 0.00 in0.0 mm 0.30 in7.6 mm
02:45 PM 74.8°F23.8°C 72.0°F22.2°C 91% 3.0 mph NE4.8 kmh NE 8.0 mph12.9 kmh 29.82 in1009.8 mb 0.14 in3.6 mm 0.00 in0.0 mm 0.30 in7.6 mm
03:00 PM 76.8°F24.9°C 73.7°F23.2°C 90% 5.0 mph NE8.0 kmh NE 11.0 mph17.7 kmh 29.81 in1009.5 mb 0.13 in3.3 mm 0.00 in0.0 mm 0.30 in7.6 mm
03:15 PM 78.8°F26.0°C 73.9°F23.3°C 85% 4.0 mph NE6.4 kmh NE 13.0 mph20.9 kmh 29.81 in1009.5 mb 0.02 in0.5 mm 0.00 in0.0 mm 0.30 in7.6 mm
03:30 PM 79.5°F26.4°C 74.3°F23.5°C 84% 4.0 mph NE6.4 kmh NE 10.0 mph16.1 kmh 29.81 in1009.5 mb 0.00 in0.0 mm 0.00 in0.0 mm 0.30 in7.6 mm
03:45 PM 80.1°F26.7°C 74.1°F23.4°C 82% 4.0 mph NE6.4 kmh NE 13.0 mph20.9 kmh 29.80 in1009.1 mb 0.00 in0.0 mm 0.00 in0.0 mm 0.30 in7.6 mm
04:00 PM 81.3°F27.4°C 73.8°F23.2°C 78% 3.0 mph NE4.8 kmh NE 10.0 mph16.1 kmh 29.80 in1009.1 mb 0.00 in0.0 mm 0.00 in0.0 mm 0.30 in7.6 mm
04:15 PM 82.2°F27.9°C 74.7°F23.7°C 78% 2.0 mph NE3.2 kmh NE 8.0 mph12.9 kmh 29.79 in1008.8 mb 0.00 in0.0 mm 0.00 in0.0 mm 0.30 in7.6 mm
04:30 PM 82.2°F27.9°C 74.3°F23.5°C 77% 2.0 mph NE3.2 kmh NE 6.0 mph9.7 kmh 29.79 in1008.8 mb 0.00 in0.0 mm 0.00 in0.0 mm 0.30 in7.6 mm
04:45 PM 81.3°F27.4°C 75.3°F24.1°C 82% 1.0 mph NE1.6 kmh NE 4.0 mph6.4 kmh 29.79 in1008.8 mb 0.01 in0.3 mm 0.04 in1.0 mm 0.31 in7.9 mm
05:00 PM 79.5°F26.4°C 74.3°F23.5°C 84% 3.0 mph NE4.8 kmh NE 8.0 mph12.9 kmh 29.77 in1008.1 mb 0.01 in0.3 mm 0.00 in0.0 mm 0.31 in7.9 mm
05:15 PM 79.3°F26.3°C 74.4°F23.6°C 85% 3.0 mph ENE4.8 kmh ENE 8.0 mph12.9 kmh 29.79 in1008.8 mb 0.01 in0.3 mm 0.00 in0.0 mm 0.31 in7.9 mm
05:30 PM 79.2°F26.2°C 75.0°F23.9°C 87% 3.0 mph NE4.8 kmh NE 10.0 mph16.1 kmh 29.78 in1008.5 mb 0.01 in0.3 mm 0.00 in0.0 mm 0.31 in7.9 mm
05:45 PM 78.4°F25.8°C 74.6°F23.7°C 88% 3.0 mph NE4.8 kmh NE 9.0 mph14.5 kmh 29.78 in1008.5 mb 0.00 in0.0 mm 0.00 in0.0 mm 0.31 in7.9 mm
06:00 PM 78.4°F25.8°C 74.9°F23.8°C 89% 1.0 mph ENE1.6 kmh ENE 7.0 mph11.3 kmh 29.79 in1008.8 mb 0.00 in0.0 mm 0.00 in0.0 mm 0.31 in7.9 mm
06:15 PM 78.1°F25.6°C 74.6°F23.7°C 89% 1.0 mph ENE1.6 kmh ENE 5.0 mph8.0 kmh 29.78 in1008.5 mb 0.02 in0.5 mm 0.08 in2.0 mm 0.32 in8.1 mm
06:30 PM 77.4°F25.2°C 73.9°F23.3°C 89% 3.0 mph NE4.8 kmh NE 9.0 mph14.5 kmh 29.78 in1008.5 mb 0.02 in0.5 mm 0.00 in0.0 mm 0.32 in8.1 mm
06:45 PM 77.2°F25.1°C 73.7°F23.2°C 89% 3.0 mph NE4.8 kmh NE 8.0 mph12.9 kmh 29.77 in1008.1 mb 0.02 in0.5 mm 0.00 in0.0 mm 0.32 in8.1 mm
07:00 PM 76.8°F24.9°C 73.7°F23.2°C 90% 3.0 mph NE4.8 kmh NE 9.0 mph14.5 kmh 29.77 in1008.1 mb 0.02 in0.5 mm 0.00 in0.0 mm 0.32 in8.1 mm
07:15 PM 76.6°F24.8°C 73.5°F23.1°C 90% 3.0 mph NE4.8 kmh NE 9.0 mph14.5 kmh 29.76 in1007.8 mb 0.00 in0.0 mm 0.00 in0.0 mm 0.32 in8.1 mm
07:30 PM 76.5°F24.7°C 73.3°F22.9°C 90% 3.0 mph NE4.8 kmh NE 8.0 mph12.9 kmh 29.77 in1008.1 mb 0.00 in0.0 mm 0.00 in0.0 mm 0.32 in8.1 mm
07:45 PM 76.5°F24.7°C 73.6°F23.1°C 91% 3.0 mph NE4.8 kmh NE 10.0 mph16.1 kmh 29.77 in1008.1 mb 0.00 in0.0 mm 0.00 in0.0 mm 0.32 in8.1 mm
08:00 PM 76.6°F24.8°C 73.5°F23.1°C 90% 3.0 mph ENE4.8 kmh ENE 8.0 mph12.9 kmh 29.77 in1008.1 mb 0.00 in0.0 mm 0.00 in0.0 mm 0.32 in8.1 mm
08:15 PM 77.2°F25.1°C 74.0°F23.3°C 90% 2.0 mph E3.2 kmh E 6.0 mph9.7 kmh 29.77 in1008.1 mb 0.00 in0.0 mm 0.00 in0.0 mm 0.32 in8.1 mm
08:30 PM 77.2°F25.1°C 73.7°F23.2°C 89% 4.0 mph E6.4 kmh E 8.0 mph12.9 kmh 29.77 in1008.1 mb 0.00 in0.0 mm 0.00 in0.0 mm 0.32 in8.1 mm
08:45 PM 77.4°F25.2°C 73.2°F22.9°C 87% 4.0 mph E6.4 kmh E 10.0 mph16.1 kmh 29.77 in1008.1 mb 0.00 in0.0 mm 0.00 in0.0 mm 0.32 in8.1 mm
09:00 PM 77.4°F25.2°C 73.2°F22.9°C 87% 2.0 mph E3.2 kmh E 9.0 mph14.5 kmh 29.77 in1008.1 mb 0.00 in0.0 mm 0.00 in0.0 mm 0.32 in8.1 mm
09:15 PM 77.2°F25.1°C 73.0°F22.8°C 87% 1.0 mph E1.6 kmh E 6.0 mph9.7 kmh 29.77 in1008.1 mb 0.00 in0.0 mm 0.00 in0.0 mm 0.32 in8.1 mm
09:30 PM 77.2°F25.1°C 73.0°F22.8°C 87% 2.0 mph E3.2 kmh E 7.0 mph11.3 kmh 29.78 in1008.5 mb 0.00 in0.0 mm 0.00 in0.0 mm 0.32 in8.1 mm
09:45 PM 77.4°F25.2°C 72.8°F22.7°C 86% 3.0 mph ESE4.8 kmh ESE 8.0 mph12.9 kmh 29.79 in1008.8 mb 0.00 in0.0 mm 0.00 in0.0 mm 0.32 in8.1 mm
10:00 PM 77.4°F25.2°C 72.1°F22.3°C 84% 4.0 mph SSE6.4 kmh SSE 9.0 mph14.5 kmh 29.80 in1009.1 mb 0.00 in0.0 mm 0.00 in0.0 mm 0.32 in8.1 mm
10:15 PM 76.5°F24.7°C 70.2°F21.2°C 81% 4.0 mph S6.4 kmh S 8.0 mph12.9 kmh 29.81 in1009.5 mb 0.00 in0.0 mm 0.00 in0.0 mm 0.32 in8.1 mm
10:30 PM 75.4°F24.1°C 69.5°F20.8°C 82% 4.0 mph SSE6.4 kmh SSE 8.0 mph12.9 kmh 29.82 in1009.8 mb 0.00 in0.0 mm 0.00 in0.0 mm 0.32 in8.1 mm
10:45 PM 74.1°F23.4°C 68.3°F20.2°C 82% 4.0 mph S6.4 kmh S 9.0 mph14.5 kmh 29.83 in1010.2 mb 0.00 in0.0 mm 0.00 in0.0 mm 0.32 in8.1 mm
11:00 PM 73.0°F22.8°C 67.6°F19.8°C 83% 3.0 mph S4.8 kmh S 8.0 mph12.9 kmh 29.83 in1010.2 mb 0.00 in0.0 mm 0.00 in0.0 mm 0.32 in8.1 mm
11:15 PM 72.5°F22.5°C 67.0°F19.4°C 83% 1.0 mph S1.6 kmh S 4.0 mph6.4 kmh 29.83 in1010.2 mb 0.00 in0.0 mm 0.00 in0.0 mm 0.32 in8.1 mm
11:30 PM 72.0°F22.2°C 66.9°F19.4°C 84% 1.0 mph S1.6 kmh S 5.0 mph8.0 kmh 29.83 in1010.2 mb 0.00 in0.0 mm 0.00 in0.0 mm 0.32 in8.1 mm
11:45 PM 71.4°F21.9°C 66.3°F19.1°C 84% 1.0 mph S1.6 kmh S 3.0 mph4.8 kmh 29.83 in1010.2 mb 0.00 in0.0 mm 0.00 in0.0 mm 0.32 in8.1 mm